KMIAMHTG

Guest
Details From KMIA - Miami Intl
To MHTG - Tegucigalpa Toncontin Intl
Flight Number -
Tags Generated
Created
Modified
Stats Distance 806 nm / 1,493 km
Max Altitude 0 ft / 0 m
Waypoints 4
Social Downloads 5
Likes 0
Share VATSIM

Download

Looking for another format? Having issues loading an existing format? Contact us
Advertisement - Login to hide

Notes

Generated

Route

KMIA D R4032 MHTG

ID Type Via Altitude Latitude Longitude Leg Dist Tot Dist Heading (true) Name
O KMIA APT - 0 ft / 0 m 25.80290˚ -80.30154˚ - 0 nm - -
D NDB - 0 ft / 0 m 21.82168˚ -82.79935˚ 275 nm 275 nm 210° / 209° GERONA NDB
R4032 FIX - 0 ft / 0 m 14.06884˚ -87.21439˚ 529 nm 805 nm 209° / 208° -
O MHTG APT - 0 ft / 0 m 14.05292˚ -87.22000˚ 1 nm 806 nm 199° / 199° -

Altitude Profile

Advertisement - Login to hide

Weather


0- 5 10 15 20 25 30 35+ Temperature / ° C

Clouds and Precipitation
Forecast for 2018-05-23 12:00 UTC. Updated 3 minutes ago

Ground ~20,000 ft ~40,000 ft Winds

KMIA

Details ICAO KMIA (MIA)
Name Miami Intl
Region United States
Timezone America/New_York (UTC-4.0)
Stats Elevation 8 ft / 2 m (AMSL)
Location 25.796167° -80.289742°
Runways 4
Magnetic Variation 6.684° W

METAR

KMIA 231053Z 11007KT 10SM FEW019 BKN250 25/23 A3006 RMK AO2 SLP179 T02500228

Decode

TAF

TAF AMD KMIA 230928Z 2309/2412 10008KT P6SM FEW020 BKN250 FM231300 12010KT P6SM VCSH SCT030 SCT050 BKN120 FM231700 12012KT P6SM SCT025 SCT040 BKN110 FM240100 11007KT P6SM SCT020 BKN120

Decode

Departure Runways

ID Width Length Bearing (true) Bearing (mag) Surface Threshold Offset Overrun Length
08L 151 ft / 46 m 8,588 ft / 2,618 m 87.35° 94.03° Asphalt 0 ft / 0 m 1,001 ft / 305 m
08R 200 ft / 61 m 10,490 ft / 3,197 m 87.37° 94.05° Asphalt 0 ft / 0 m 1,001 ft / 305 m
09 151 ft / 46 m 12,981 ft / 3,957 m 87.36° 94.04° Asphalt 1,348 ft / 411 m 1,001 ft / 305 m
12 151 ft / 46 m 9,353 ft / 2,851 m 119.60° 126.28° Asphalt 0 ft / 0 m 1,001 ft / 305 m
26L 200 ft / 61 m 10,490 ft / 3,197 m 267.38° 274.06° Asphalt 0 ft / 0 m 1,001 ft / 305 m
26R 151 ft / 46 m 8,588 ft / 2,618 m 267.37° 274.05° Asphalt 0 ft / 0 m 1,001 ft / 305 m
27 151 ft / 46 m 12,981 ft / 3,957 m 267.38° 274.06° Asphalt 1,270 ft / 387 m 899 ft / 274 m
30 151 ft / 46 m 9,353 ft / 2,851 m 299.61° 306.29° Asphalt 938 ft / 286 m 427 ft / 130 m

MHTG

Details ICAO MHTG (TGU)
Name Tegucigalpa Toncontin Intl
Region Honduras
Timezone America/Tegucigalpa (UTC-6.0)
Stats Elevation 3,294 ft / 1,004 m (AMSL)
Location 14.060883° -87.217197°
Runways 1
Magnetic Variation 0.721° W

METAR

MHTG 231100Z 00000KT 9999 FEW008 BKN026 18/18 Q1017 A3003 NOSIG

Decode

TAF

Not found

Destination Runways

ID Width Length Bearing (true) Bearing (mag) Surface Threshold Offset Overrun Length
02 148 ft / 45 m 6,140 ft / 1,872 m 18.87° 19.59° Asphalt 670 ft / 204 m 100 ft / 30 m
20 148 ft / 45 m 6,140 ft / 1,872 m 198.87° 199.59° Asphalt 0 ft / 0 m 200 ft / 61 m

Popular Alternatives